Garrison, New York
Current Conditions -  °F | °C
As of 6:45 PM on Sunday 23 Nov 2014 (Local Time) from KSWF Reporting Station
Scattered Clouds Scattered Clouds  
Wind Chill: 50°   Ceiling: Unl
Heat Index: 50°   Visibility: 10mi
Dew Point: 28°   Wind: 12mph
Humidity: 43%   Direction: 180°S
Pressure: 30.1"   Gusts: NA
Location:  41.38°N, 73.95°W
Report Text: KSWF 232345Z 18010KT 10SM SCT100 10/M02 A3010
Loading
Personal Weather Stations






























Interactive Weather Map New forecast layout! Learn more

10-Day Weather Forecast

Advertisements
Track Severe Weather on mobile